sensor_id;sensor_type;location;lat;lon;timestamp;P1;durP1;ratioP1;P2;durP2;ratioP2
30613;SDS011;17381;51.690;5.270;2022-08-05T00:19:23;3.05;;;1.02;;
30613;SDS011;17381;51.690;5.270;2022-08-05T00:25:24;4.38;;;1.20;;
30613;SDS011;17381;51.690;5.270;2022-08-05T00:31:31;4.13;;;1.35;;
30613;SDS011;17381;51.690;5.270;2022-08-05T00:34:31;3.58;;;1.15;;
30613;SDS011;17381;51.690;5.270;2022-08-05T00:48:10;5.50;;;1.20;;
30613;SDS011;17381;51.690;5.270;2022-08-05T00:51:02;5.75;;;1.50;;
30613;SDS011;17381;51.690;5.270;2022-08-05T00:53:52;5.00;;;0.68;;
30613;SDS011;17381;51.690;5.270;2022-08-05T01:44:36;3.03;;;1.30;;
30613;SDS011;17381;51.690;5.270;2022-08-05T01:47:39;2.47;;;1.08;;
30613;SDS011;17381;51.690;5.270;2022-08-05T02:54:57;3.40;;;1.20;;
30613;SDS011;17381;51.690;5.270;2022-08-05T02:57:54;2.47;;;1.15;;
30613;SDS011;17381;51.690;5.270;2022-08-05T03:00:51;5.40;;;1.48;;
30613;SDS011;17381;51.690;5.270;2022-08-05T03:03:41;3.25;;;0.77;;
30613;SDS011;17381;51.690;5.270;2022-08-05T03:06:32;2.53;;;1.08;;
30613;SDS011;17381;51.690;5.270;2022-08-05T03:09:30;4.32;;;1.58;;
30613;SDS011;17381;51.690;5.270;2022-08-05T03:12:03;4.90;;;1.60;;
30613;SDS011;17381;51.690;5.270;2022-08-05T03:14:29;4.15;;;1.27;;
30613;SDS011;17381;51.690;5.270;2022-08-05T03:17:06;5.40;;;0.95;;
30613;SDS011;17381;51.690;5.270;2022-08-05T03:19:39;3.33;;;1.00;;
30613;SDS011;17381;51.690;5.270;2022-08-05T03:22:11;3.20;;;1.08;;
30613;SDS011;17381;51.690;5.270;2022-08-05T03:24:40;3.50;;;1.02;;
30613;SDS011;17381;51.690;5.270;2022-08-05T03:27:10;4.40;;;0.80;;
30613;SDS011;17381;51.690;5.270;2022-08-05T03:29:42;2.47;;;0.95;;
30613;SDS011;17381;51.690;5.270;2022-08-05T03:32:20;4.72;;;1.25;;
30613;SDS011;17381;51.690;5.270;2022-08-05T03:34:46;2.20;;;0.70;;
30613;SDS011;17381;51.690;5.270;2022-08-05T03:37:19;3.95;;;1.15;;
30613;SDS011;17381;51.690;5.270;2022-08-05T03:39:55;7.47;;;1.40;;
30613;SDS011;17381;51.690;5.270;2022-08-05T03:42:28;3.03;;;1.10;;
30613;SDS011;17381;51.690;5.270;2022-08-05T03:45:03;3.38;;;0.82;;
30613;SDS011;17381;51.690;5.270;2022-08-05T03:47:39;4.38;;;1.35;;
30613;SDS011;17381;51.690;5.270;2022-08-05T03:50:05;3.85;;;1.15;;
30613;SDS011;17381;51.690;5.270;2022-08-05T03:52:36;2.75;;;0.95;;
30613;SDS011;17381;51.690;5.270;2022-08-05T03:55:34;2.40;;;0.77;;
30613;SDS011;17381;51.690;5.270;2022-08-05T03:58:04;4.47;;;1.38;;
30613;SDS011;17381;51.690;5.270;2022-08-05T04:00:49;3.47;;;1.20;;
30613;SDS011;17381;51.690;5.270;2022-08-05T04:03:24;2.95;;;1.00;;
30613;SDS011;17381;51.690;5.270;2022-08-05T04:05:54;3.72;;;1.52;;
30613;SDS011;17381;51.690;5.270;2022-08-05T04:08:30;2.22;;;0.77;;
30613;SDS011;17381;51.690;5.270;2022-08-05T04:11:06;2.55;;;0.93;;
30613;SDS011;17381;51.690;5.270;2022-08-05T04:13:33;1.73;;;0.70;;
30613;SDS011;17381;51.690;5.270;2022-08-05T04:19:28;2.88;;;0.80;;
30613;SDS011;17381;51.690;5.270;2022-08-05T04:22:14;6.70;;;1.55;;
30613;SDS011;17381;51.690;5.270;2022-08-05T04:24:50;2.17;;;0.82;;
30613;SDS011;17381;51.690;5.270;2022-08-05T04:27:25;3.65;;;1.02;;
30613;SDS011;17381;51.690;5.270;2022-08-05T04:30:10;2.38;;;0.80;;
30613;SDS011;17381;51.690;5.270;2022-08-05T04:32:41;2.50;;;0.75;;
30613;SDS011;17381;51.690;5.270;2022-08-05T04:35:07;5.15;;;1.25;;
30613;SDS011;17381;51.690;5.270;2022-08-05T04:37:39;2.63;;;1.10;;
30613;SDS011;17381;51.690;5.270;2022-08-05T04:40:08;5.07;;;1.23;;
30613;SDS011;17381;51.690;5.270;2022-08-05T04:42:36;3.58;;;0.93;;
30613;SDS011;17381;51.690;5.270;2022-08-05T04:45:07;3.85;;;1.00;;
30613;SDS011;17381;51.690;5.270;2022-08-05T04:47:42;2.42;;;0.85;;
30613;SDS011;17381;51.690;5.270;2022-08-05T04:50:11;2.47;;;1.00;;
30613;SDS011;17381;51.690;5.270;2022-08-05T04:52:49;1.73;;;0.75;;
30613;SDS011;17381;51.690;5.270;2022-08-05T04:55:23;4.32;;;1.17;;
30613;SDS011;17381;51.690;5.270;2022-08-05T04:57:49;4.13;;;1.25;;
30613;SDS011;17381;51.690;5.270;2022-08-05T05:00:20;4.38;;;1.23;;
30613;SDS011;17381;51.690;5.270;2022-08-05T05:02:55;2.50;;;1.10;;
30613;SDS011;17381;51.690;5.270;2022-08-05T05:05:33;4.18;;;1.05;;
30613;SDS011;17381;51.690;5.270;2022-08-05T05:08:06;3.72;;;1.23;;
30613;SDS011;17381;51.690;5.270;2022-08-05T05:10:46;3.58;;;0.90;;
30613;SDS011;17381;51.690;5.270;2022-08-05T05:13:19;2.30;;;0.80;;
30613;SDS011;17381;51.690;5.270;2022-08-05T05:15:48;2.20;;;0.80;;
30613;SDS011;17381;51.690;5.270;2022-08-05T05:18:14;3.85;;;1.20;;
30613;SDS011;17381;51.690;5.270;2022-08-05T05:20:56;5.70;;;1.35;;
30613;SDS011;17381;51.690;5.270;2022-08-05T05:23:50;3.00;;;0.93;;
30613;SDS011;17381;51.690;5.270;2022-08-05T05:26:43;3.15;;;1.20;;
30613;SDS011;17381;51.690;5.270;2022-08-05T05:29:36;3.80;;;1.20;;
30613;SDS011;17381;51.690;5.270;2022-08-05T05:32:37;5.68;;;1.65;;
30613;SDS011;17381;51.690;5.270;2022-08-05T05:35:33;4.47;;;1.23;;
30613;SDS011;17381;51.690;5.270;2022-08-05T05:38:31;3.08;;;1.08;;
30613;SDS011;17381;51.690;5.270;2022-08-05T05:44:16;3.00;;;1.40;;
30613;SDS011;17381;51.690;5.270;2022-08-05T05:47:12;3.22;;;1.20;;
30613;SDS011;17381;51.690;5.270;2022-08-05T05:49:56;4.90;;;1.15;;
30613;SDS011;17381;51.690;5.270;2022-08-05T05:52:56;5.72;;;1.60;;
30613;SDS011;17381;51.690;5.270;2022-08-05T05:55:52;2.85;;;1.00;;
30613;SDS011;17381;51.690;5.270;2022-08-05T05:59:14;5.30;;;1.52;;
30613;SDS011;17381;51.690;5.270;2022-08-05T06:02:18;2.03;;;0.88;;
30613;SDS011;17381;51.690;5.270;2022-08-05T06:05:29;3.65;;;1.10;;
30613;SDS011;17381;51.690;5.270;2022-08-05T06:08:28;2.22;;;0.90;;
30613;SDS011;17381;51.690;5.270;2022-08-05T06:11:16;5.97;;;1.48;;
30613;SDS011;17381;51.690;5.270;2022-08-05T06:13:57;6.22;;;1.25;;
30613;SDS011;17381;51.690;5.270;2022-08-05T06:16:56;5.13;;;1.50;;
30613;SDS011;17381;51.690;5.270;2022-08-05T06:19:55;4.00;;;1.40;;
30613;SDS011;17381;51.690;5.270;2022-08-05T06:23:03;3.80;;;1.00;;
30613;SDS011;17381;51.690;5.270;2022-08-05T06:26:03;4.90;;;1.33;;
30613;SDS011;17381;51.690;5.270;2022-08-05T06:29:00;5.45;;;1.33;;
30613;SDS011;17381;51.690;5.270;2022-08-05T06:32:00;2.55;;;1.10;;
30613;SDS011;17381;51.690;5.270;2022-08-05T06:34:56;6.35;;;1.38;;
30613;SDS011;17381;51.690;5.270;2022-08-05T06:37:57;9.68;;;1.50;;
30613;SDS011;17381;51.690;5.270;2022-08-05T06:40:53;5.38;;;1.42;;
30613;SDS011;17381;51.690;5.270;2022-08-05T06:43:47;5.60;;;1.48;;
30613;SDS011;17381;51.690;5.270;2022-08-05T06:46:43;3.20;;;0.90;;
30613;SDS011;17381;51.690;5.270;2022-08-05T06:49:35;3.13;;;1.10;;
30613;SDS011;17381;51.690;5.270;2022-08-05T06:52:31;2.88;;;1.33;;
30613;SDS011;17381;51.690;5.270;2022-08-05T06:55:19;1.60;;;0.85;;
30613;SDS011;17381;51.690;5.270;2022-08-05T06:58:24;2.10;;;1.10;;
30613;SDS011;17381;51.690;5.270;2022-08-05T07:13:24;2.40;;;1.00;;
30613;SDS011;17381;51.690;5.270;2022-08-05T07:16:47;1.90;;;0.80;;
30613;SDS011;17381;51.690;5.270;2022-08-05T07:19:49;5.20;;;0.77;;
30613;SDS011;17381;51.690;5.270;2022-08-05T07:22:51;2.20;;;0.60;;
30613;SDS011;17381;51.690;5.270;2022-08-05T07:25:54;2.75;;;0.80;;
30613;SDS011;17381;51.690;5.270;2022-08-05T07:28:47;1.33;;;0.50;;
30613;SDS011;17381;51.690;5.270;2022-08-05T07:31:56;2.30;;;0.88;;
30613;SDS011;17381;51.690;5.270;2022-08-05T07:35:17;3.90;;;0.80;;
30613;SDS011;17381;51.690;5.270;2022-08-05T07:38:44;4.13;;;1.25;;
30613;SDS011;17381;51.690;5.270;2022-08-05T07:42:07;2.63;;;1.10;;
30613;SDS011;17381;51.690;5.270;2022-08-05T07:45:31;1.73;;;0.63;;
30613;SDS011;17381;51.690;5.270;2022-08-05T07:48:50;3.15;;;1.05;;
30613;SDS011;17381;51.690;5.270;2022-08-05T07:52:06;4.65;;;0.85;;
30613;SDS011;17381;51.690;5.270;2022-08-05T08:03:03;1.00;;;0.60;;
30613;SDS011;17381;51.690;5.270;2022-08-05T08:05:57;6.50;;;1.02;;
30613;SDS011;17381;51.690;5.270;2022-08-05T08:08:46;2.28;;;0.80;;
30613;SDS011;17381;51.690;5.270;2022-08-05T08:11:33;4.45;;;0.82;;
30613;SDS011;17381;51.690;5.270;2022-08-05T08:14:25;2.28;;;0.70;;
30613;SDS011;17381;51.690;5.270;2022-08-05T08:17:16;2.05;;;0.60;;
30613;SDS011;17381;51.690;5.270;2022-08-05T08:20:00;1.80;;;0.53;;
30613;SDS011;17381;51.690;5.270;2022-08-05T08:22:32;6.72;;;1.13;;
30613;SDS011;17381;51.690;5.270;2022-08-05T08:25:29;1.80;;;0.50;;
30613;SDS011;17381;51.690;5.270;2022-08-05T08:28:00;3.30;;;0.80;;
30613;SDS011;17381;51.690;5.270;2022-08-05T08:30:40;1.90;;;0.80;;
30613;SDS011;17381;51.690;5.270;2022-08-05T08:33:17;4.10;;;0.70;;
30613;SDS011;17381;51.690;5.270;2022-08-05T08:35:45;1.52;;;0.50;;
30613;SDS011;17381;51.690;5.270;2022-08-05T08:38:44;3.47;;;1.00;;
30613;SDS011;17381;51.690;5.270;2022-08-05T08:41:11;2.40;;;0.45;;
30613;SDS011;17381;51.690;5.270;2022-08-05T08:43:53;1.23;;;0.50;;
30613;SDS011;17381;51.690;5.270;2022-08-05T08:46:47;5.88;;;0.95;;
30613;SDS011;17381;51.690;5.270;2022-08-05T08:49:35;4.10;;;1.25;;
30613;SDS011;17381;51.690;5.270;2022-08-05T08:52:29;1.70;;;0.60;;
30613;SDS011;17381;51.690;5.270;2022-08-05T08:54:59;1.95;;;0.63;;
30613;SDS011;17381;51.690;5.270;2022-08-05T08:57:37;1.13;;;0.50;;
30613;SDS011;17381;51.690;5.270;2022-08-05T09:00:30;0.95;;;0.30;;
30613;SDS011;17381;51.690;5.270;2022-08-05T09:03:27;1.45;;;0.40;;
30613;SDS011;17381;51.690;5.270;2022-08-05T09:06:42;0.63;;;0.28;;
30613;SDS011;17381;51.690;5.270;2022-08-05T09:09:37;1.27;;;0.32;;
30613;SDS011;17381;51.690;5.270;2022-08-05T09:12:36;0.82;;;0.28;;
30613;SDS011;17381;51.690;5.270;2022-08-05T09:15:33;0.77;;;0.20;;
30613;SDS011;17381;51.690;5.270;2022-08-05T09:18:26;0.90;;;0.30;;
30613;SDS011;17381;51.690;5.270;2022-08-05T09:21:23;0.88;;;0.30;;
30613;SDS011;17381;51.690;5.270;2022-08-05T09:24:18;2.20;;;0.65;;
30613;SDS011;17381;51.690;5.270;2022-08-05T09:27:07;0.75;;;0.10;;
30613;SDS011;17381;51.690;5.270;2022-08-05T09:30:11;0.70;;;0.30;;
30613;SDS011;17381;51.690;5.270;2022-08-05T09:33:02;0.65;;;0.20;;
30613;SDS011;17381;51.690;5.270;2022-08-05T09:35:34;0.75;;;0.20;;
30613;SDS011;17381;51.690;5.270;2022-08-05T09:38:10;1.20;;;0.20;;
30613;SDS011;17381;51.690;5.270;2022-08-05T09:40:48;0.55;;;0.17;;
30613;SDS011;17381;51.690;5.270;2022-08-05T09:43:36;1.17;;;0.20;;
30613;SDS011;17381;51.690;5.270;2022-08-05T09:46:22;0.52;;;0.13;;
30613;SDS011;17381;51.690;5.270;2022-08-05T09:49:11;2.40;;;0.22;;
30613;SDS011;17381;51.690;5.270;2022-08-05T09:52:21;5.47;;;0.10;;
30613;SDS011;17381;51.690;5.270;2022-08-05T09:57:48;0.38;;;0.10;;
30613;SDS011;17381;51.690;5.270;2022-08-05T10:01:03;0.15;;;0.10;;
30613;SDS011;17381;51.690;5.270;2022-08-05T10:03:41;0.93;;;0.30;;
30613;SDS011;17381;51.690;5.270;2022-08-05T10:06:33;1.63;;;0.17;;
30613;SDS011;17381;51.690;5.270;2022-08-05T10:09:23;1.33;;;0.30;;
30613;SDS011;17381;51.690;5.270;2022-08-05T10:12:19;0.28;;;0.10;;
30613;SDS011;17381;51.690;5.270;2022-08-05T10:15:48;1.85;;;0.13;;
30613;SDS011;17381;51.690;5.270;2022-08-05T10:18:34;0.30;;;0.10;;
30613;SDS011;17381;51.690;5.270;2022-08-05T10:21:12;1.10;;;0.20;;
30613;SDS011;17381;51.690;5.270;2022-08-05T10:24:08;1.15;;;0.17;;
30613;SDS011;17381;51.690;5.270;2022-08-05T10:26:57;2.50;;;0.20;;
30613;SDS011;17381;51.690;5.270;2022-08-05T10:29:53;0.73;;;0.15;;
30613;SDS011;17381;51.690;5.270;2022-08-05T10:32:43;0.68;;;0.17;;
30613;SDS011;17381;51.690;5.270;2022-08-05T10:35:39;0.57;;;0.10;;
30613;SDS011;17381;51.690;5.270;2022-08-05T10:38:24;0.88;;;0.30;;
30613;SDS011;17381;51.690;5.270;2022-08-05T10:42:00;2.60;;;0.50;;
30613;SDS011;17381;51.690;5.270;2022-08-05T10:44:49;0.68;;;0.20;;
30613;SDS011;17381;51.690;5.270;2022-08-05T10:47:50;0.90;;;0.30;;
30613;SDS011;17381;51.690;5.270;2022-08-05T10:51:14;1.25;;;0.30;;
30613;SDS011;17381;51.690;5.270;2022-08-05T10:54:10;0.43;;;0.20;;
30613;SDS011;17381;51.690;5.270;2022-08-05T10:56:56;0.88;;;0.22;;
30613;SDS011;17381;51.690;5.270;2022-08-05T10:59:49;1.25;;;0.20;;
30613;SDS011;17381;51.690;5.270;2022-08-05T11:12:03;1.00;;;0.20;;
30613;SDS011;17381;51.690;5.270;2022-08-05T11:15:22;0.57;;;0.15;;
30613;SDS011;17381;51.690;5.270;2022-08-05T11:18:07;1.02;;;0.30;;
30613;SDS011;17381;51.690;5.270;2022-08-05T11:20:59;4.13;;;0.50;;
30613;SDS011;17381;51.690;5.270;2022-08-05T11:23:54;1.02;;;0.30;;
30613;SDS011;17381;51.690;5.270;2022-08-05T11:26:20;2.75;;;0.50;;
30613;SDS011;17381;51.690;5.270;2022-08-05T11:29:05;1.30;;;0.32;;
30613;SDS011;17381;51.690;5.270;2022-08-05T11:31:49;1.48;;;0.32;;
30613;SDS011;17381;51.690;5.270;2022-08-05T11:35:50;1.52;;;0.30;;
30613;SDS011;17381;51.690;5.270;2022-08-05T11:38:56;1.85;;;0.82;;
30613;SDS011;17381;51.690;5.270;2022-08-05T11:41:29;1.08;;;0.30;;
30613;SDS011;17381;51.690;5.270;2022-08-05T11:44:12;0.68;;;0.10;;
30613;SDS011;17381;51.690;5.270;2022-08-05T11:47:00;2.10;;;0.43;;
30613;SDS011;17381;51.690;5.270;2022-08-05T11:49:57;0.28;;;0.10;;
30613;SDS011;17381;51.690;5.270;2022-08-05T11:52:35;1.50;;;0.32;;
30613;SDS011;17381;51.690;5.270;2022-08-05T11:56:01;1.40;;;0.20;;
30613;SDS011;17381;51.690;5.270;2022-08-05T11:58:59;1.98;;;0.47;;
30613;SDS011;17381;51.690;5.270;2022-08-05T12:01:55;0.30;;;0.00;;
30613;SDS011;17381;51.690;5.270;2022-08-05T12:04:59;1.08;;;0.50;;
30613;SDS011;17381;51.690;5.270;2022-08-05T12:07:55;0.40;;;0.10;;
30613;SDS011;17381;51.690;5.270;2022-08-05T12:10:25;0.43;;;0.20;;
30613;SDS011;17381;51.690;5.270;2022-08-05T12:13:03;0.95;;;0.20;;
30613;SDS011;17381;51.690;5.270;2022-08-05T12:15:29;0.88;;;0.10;;
30613;SDS011;17381;51.690;5.270;2022-08-05T12:18:15;0.25;;;0.10;;
30613;SDS011;17381;51.690;5.270;2022-08-05T12:21:47;1.70;;;0.45;;
30613;SDS011;17381;51.690;5.270;2022-08-05T12:24:11;2.13;;;0.32;;
30613;SDS011;17381;51.690;5.270;2022-08-05T12:26:56;0.90;;;0.10;;
30613;SDS011;17381;51.690;5.270;2022-08-05T12:30:11;0.30;;;0.10;;
30613;SDS011;17381;51.690;5.270;2022-08-05T12:32:50;0.17;;;0.00;;
30613;SDS011;17381;51.690;5.270;2022-08-05T12:35:25;2.05;;;0.20;;
30613;SDS011;17381;51.690;5.270;2022-08-05T12:38:18;1.05;;;0.28;;
30613;SDS011;17381;51.690;5.270;2022-08-05T12:41:06;1.67;;;0.40;;
30613;SDS011;17381;51.690;5.270;2022-08-05T12:43:51;4.30;;;0.32;;
30613;SDS011;17381;51.690;5.270;2022-08-05T12:46:26;0.10;;;0.00;;
30613;SDS011;17381;51.690;5.270;2022-08-05T12:49:23;0.60;;;0.20;;
30613;SDS011;17381;51.690;5.270;2022-08-05T12:51:57;2.75;;;0.10;;
30613;SDS011;17381;51.690;5.270;2022-08-05T12:54:51;2.08;;;0.15;;
30613;SDS011;17381;51.690;5.270;2022-08-05T12:57:35;0.85;;;0.25;;
30613;SDS011;17381;51.690;5.270;2022-08-05T13:00:23;1.40;;;0.10;;
30613;SDS011;17381;51.690;5.270;2022-08-05T13:02:51;0.65;;;0.15;;
30613;SDS011;17381;51.690;5.270;2022-08-05T13:05:22;0.65;;;0.05;;
30613;SDS011;17381;51.690;5.270;2022-08-05T13:08:15;0.70;;;0.20;;
30613;SDS011;17381;51.690;5.270;2022-08-05T13:11:17;1.75;;;0.13;;
30613;SDS011;17381;51.690;5.270;2022-08-05T13:13:42;0.88;;;0.15;;
30613;SDS011;17381;51.690;5.270;2022-08-05T13:16:15;0.80;;;0.00;;
30613;SDS011;17381;51.690;5.270;2022-08-05T13:18:56;0.20;;;0.03;;
30613;SDS011;17381;51.690;5.270;2022-08-05T13:21:22;1.75;;;0.20;;
30613;SDS011;17381;51.690;5.270;2022-08-05T13:24:10;1.23;;;0.20;;
30613;SDS011;17381;51.690;5.270;2022-08-05T13:27:23;1.40;;;0.10;;
30613;SDS011;17381;51.690;5.270;2022-08-05T13:29:50;0.30;;;0.10;;
30613;SDS011;17381;51.690;5.270;2022-08-05T13:32:41;1.27;;;0.13;;
30613;SDS011;17381;51.690;5.270;2022-08-05T13:35:35;0.47;;;0.13;;
30613;SDS011;17381;51.690;5.270;2022-08-05T13:38:13;2.38;;;0.20;;
30613;SDS011;17381;51.690;5.270;2022-08-05T13:41:01;0.30;;;0.20;;
30613;SDS011;17381;51.690;5.270;2022-08-05T13:43:26;1.13;;;0.17;;
30613;SDS011;17381;51.690;5.270;2022-08-05T13:45:53;1.27;;;0.20;;
30613;SDS011;17381;51.690;5.270;2022-08-05T13:48:21;1.23;;;0.30;;
30613;SDS011;17381;51.690;5.270;2022-08-05T13:51:12;0.77;;;0.20;;
30613;SDS011;17381;51.690;5.270;2022-08-05T13:53:39;0.55;;;0.10;;
30613;SDS011;17381;51.690;5.270;2022-08-05T13:56:08;0.70;;;0.20;;
30613;SDS011;17381;51.690;5.270;2022-08-05T13:59:01;0.95;;;0.20;;
30613;SDS011;17381;51.690;5.270;2022-08-05T14:01:29;0.90;;;0.20;;
30613;SDS011;17381;51.690;5.270;2022-08-05T14:03:58;0.60;;;0.20;;
30613;SDS011;17381;51.690;5.270;2022-08-05T14:06:42;1.35;;;0.30;;
30613;SDS011;17381;51.690;5.270;2022-08-05T14:09:20;1.95;;;0.15;;
30613;SDS011;17381;51.690;5.270;2022-08-05T14:11:52;1.08;;;0.28;;
30613;SDS011;17381;51.690;5.270;2022-08-05T14:14:20;1.30;;;0.20;;
30613;SDS011;17381;51.690;5.270;2022-08-05T14:17:01;0.95;;;0.20;;
30613;SDS011;17381;51.690;5.270;2022-08-05T14:19:52;0.68;;;0.30;;
30613;SDS011;17381;51.690;5.270;2022-08-05T14:22:21;0.10;;;0.03;;
30613;SDS011;17381;51.690;5.270;2022-08-05T14:24:50;2.35;;;0.45;;
30613;SDS011;17381;51.690;5.270;2022-08-05T14:27:25;1.02;;;0.30;;
30613;SDS011;17381;51.690;5.270;2022-08-05T14:29:52;0.95;;;0.10;;
30613;SDS011;17381;51.690;5.270;2022-08-05T14:32:35;0.38;;;0.10;;
30613;SDS011;17381;51.690;5.270;2022-08-05T14:35:01;0.75;;;0.20;;
30613;SDS011;17381;51.690;5.270;2022-08-05T14:37:37;1.85;;;0.20;;
30613;SDS011;17381;51.690;5.270;2022-08-05T14:40:06;1.98;;;0.20;;
30613;SDS011;17381;51.690;5.270;2022-08-05T14:42:45;0.20;;;0.15;;
30613;SDS011;17381;51.690;5.270;2022-08-05T14:45:32;0.30;;;0.10;;
30613;SDS011;17381;51.690;5.270;2022-08-05T14:48:02;1.52;;;0.30;;
30613;SDS011;17381;51.690;5.270;2022-08-05T14:50:36;0.85;;;0.28;;
30613;SDS011;17381;51.690;5.270;2022-08-05T14:53:10;3.47;;;0.38;;
30613;SDS011;17381;51.690;5.270;2022-08-05T14:56:03;0.85;;;0.20;;
30613;SDS011;17381;51.690;5.270;2022-08-05T15:02:39;2.05;;;0.35;;
30613;SDS011;17381;51.690;5.270;2022-08-05T15:05:56;0.98;;;0.20;;
30613;SDS011;17381;51.690;5.270;2022-08-05T15:12:48;0.22;;;0.10;;
30613;SDS011;17381;51.690;5.270;2022-08-05T15:15:17;0.52;;;0.10;;
30613;SDS011;17381;51.690;5.270;2022-08-05T15:22:02;1.10;;;0.30;;
30613;SDS011;17381;51.690;5.270;2022-08-05T15:25:01;2.13;;;0.22;;
30613;SDS011;17381;51.690;5.270;2022-08-05T15:27:58;0.30;;;0.05;;
30613;SDS011;17381;51.690;5.270;2022-08-05T15:31:04;1.25;;;0.57;;
30613;SDS011;17381;51.690;5.270;2022-08-05T15:34:18;1.42;;;0.28;;
30613;SDS011;17381;51.690;5.270;2022-08-05T15:36:50;2.80;;;0.32;;
30613;SDS011;17381;51.690;5.270;2022-08-05T15:39:43;1.00;;;0.35;;
30613;SDS011;17381;51.690;5.270;2022-08-05T15:42:23;1.13;;;0.20;;
30613;SDS011;17381;51.690;5.270;2022-08-05T15:45:22;1.03;;;0.20;;
30613;SDS011;17381;51.690;5.270;2022-08-05T15:48:10;0.30;;;0.10;;
30613;SDS011;17381;51.690;5.270;2022-08-05T15:50:45;0.85;;;0.28;;
30613;SDS011;17381;51.690;5.270;2022-08-05T15:53:20;0.47;;;0.15;;
30613;SDS011;17381;51.690;5.270;2022-08-05T15:56:32;0.98;;;0.20;;
30613;SDS011;17381;51.690;5.270;2022-08-05T15:59:39;1.45;;;0.40;;
30613;SDS011;17381;51.690;5.270;2022-08-05T16:07:33;2.33;;;0.10;;
30613;SDS011;17381;51.690;5.270;2022-08-05T16:10:37;3.35;;;0.15;;
30613;SDS011;17381;51.690;5.270;2022-08-05T16:13:14;1.98;;;0.43;;
30613;SDS011;17381;51.690;5.270;2022-08-05T16:19:09;0.63;;;0.30;;
30613;SDS011;17381;51.690;5.270;2022-08-05T16:21:37;1.00;;;0.22;;
30613;SDS011;17381;51.690;5.270;2022-08-05T16:24:16;3.70;;;0.30;;
30613;SDS011;17381;51.690;5.270;2022-08-05T16:30:06;1.63;;;0.40;;
30613;SDS011;17381;51.690;5.270;2022-08-05T16:32:41;1.35;;;0.30;;
30613;SDS011;17381;51.690;5.270;2022-08-05T16:35:19;2.78;;;0.28;;
30613;SDS011;17381;51.690;5.270;2022-08-05T17:11:09;2.63;;;0.25;;
30613;SDS011;17381;51.690;5.270;2022-08-05T17:14:19;1.65;;;0.30;;
30613;SDS011;17381;51.690;5.270;2022-08-05T17:48:08;2.75;;;0.60;;
30613;SDS011;17381;51.690;5.270;2022-08-05T18:02:05;0.98;;;0.22;;
30613;SDS011;17381;51.690;5.270;2022-08-05T18:27:39;2.97;;;0.38;;
30613;SDS011;17381;51.690;5.270;2022-08-05T18:45:33;2.67;;;0.50;;
30613;SDS011;17381;51.690;5.270;2022-08-05T18:48:54;0.90;;;0.20;;
30613;SDS011;17381;51.690;5.270;2022-08-05T18:56:02;3.28;;;0.57;;
30613;SDS011;17381;51.690;5.270;2022-08-05T18:59:29;2.03;;;0.40;;
30613;SDS011;17381;51.690;5.270;2022-08-05T19:05:36;1.65;;;0.75;;
30613;SDS011;17381;51.690;5.270;2022-08-05T19:11:58;3.53;;;0.47;;
30613;SDS011;17381;51.690;5.270;2022-08-05T19:19:00;1.65;;;0.60;;
30613;SDS011;17381;51.690;5.270;2022-08-05T19:21:52;3.22;;;0.57;;
30613;SDS011;17381;51.690;5.270;2022-08-05T19:28:04;2.83;;;0.40;;
30613;SDS011;17381;51.690;5.270;2022-08-05T19:31:03;2.42;;;0.45;;
